Time;durP1;ratioP1;P1;durP2;ratioP2;P2;SDS_P1;SDS_P2;PMS_P1;PMS_P2;Temp;Humidity;BMP_temperature;BMP_pressure;BME280_temperature;BME280_humidity;BME280_pressure;Samples;Min_cycle;Max_cycle;Signal;HPM_P1;HPM_P2
2022/03/23 00:00:55;;;;;;;28.45;21.27;;;;;;;-148.33;100.00;56587.81;5066218;28;20051;-58
2022/03/23 00:03:20;;;;;;;30.23;22.95;;;;;;;-148.33;100.00;56587.81;5066555;28;20479;-58
2022/03/23 00:05:46;;;;;;;28.40;21.33;;;;;;;-148.33;100.00;56587.81;5065433;28;20572;-58
2022/03/23 00:08:11;;;;;;;26.60;22.42;;;;;;;-148.33;100.00;56587.81;5046939;28;20035;-57
2022/03/23 00:10:37;;;;;;;26.05;22.00;;;;;;;-148.33;100.00;56587.81;5047173;28;20388;-58
2022/03/23 00:13:03;;;;;;;26.20;21.35;;;;;;;-148.33;100.00;56587.81;5046822;28;20029;-57
2022/03/23 00:15:30;;;;;;;24.50;20.58;;;;;;;-148.33;100.00;56587.81;5047990;28;20021;-58
2022/03/23 00:17:56;;;;;;;27.52;21.02;;;;;;;-148.33;100.00;56587.81;5047890;28;20465;-58
2022/03/23 00:20:21;;;;;;;25.75;20.65;;;;;;;-148.33;100.00;56587.81;5070257;28;20488;-59
2022/03/23 00:22:46;;;;;;;24.92;21.67;;;;;;;-148.33;100.00;56587.81;5069703;28;20048;-57
2022/03/23 00:25:12;;;;;;;23.98;20.83;;;;;;;-148.33;100.00;56587.81;5069834;28;20107;-58
2022/03/23 00:27:38;;;;;;;26.52;21.33;;;;;;;-148.33;100.00;56587.81;5070518;28;20028;-59
2022/03/23 00:30:04;;;;;;;29.25;22.58;;;;;;;-148.33;100.00;56587.81;5063792;28;20447;-58
2022/03/23 00:32:30;;;;;;;29.83;22.60;;;;;;;-148.33;100.00;56587.81;5050170;28;20063;-57
2022/03/23 00:34:55;;;;;;;28.77;21.88;;;;;;;-148.33;100.00;56587.81;5050702;28;20061;-58
2022/03/23 00:37:20;;;;;;;25.02;22.08;;;;;;;-148.33;100.00;56587.81;5050545;28;20051;-58
2022/03/23 00:39:46;;;;;;;35.27;23.10;;;;;;;-148.33;100.00;56587.81;5050006;28;20032;-58
2022/03/23 00:42:11;;;;;;;31.10;21.90;;;;;;;-148.33;100.00;56587.81;5050124;28;20021;-58
2022/03/23 00:44:37;;;;;;;29.83;22.53;;;;;;;-148.33;100.00;56587.81;5050306;28;20044;-58
2022/03/23 00:47:02;;;;;;;26.00;23.20;;;;;;;-148.33;100.00;56587.81;5032625;28;20037;-58
2022/03/23 00:49:28;;;;;;;27.83;22.00;;;;;;;-148.33;100.00;56587.81;5050024;28;20443;-58
2022/03/23 00:51:53;;;;;;;29.77;21.63;;;;;;;-148.33;100.00;56587.81;5050356;28;20244;-58
2022/03/23 00:54:19;;;;;;;28.80;21.60;;;;;;;-148.33;100.00;56587.81;5050369;28;20032;-58
2022/03/23 00:56:45;;;;;;;30.53;21.40;;;;;;;-148.33;100.00;56587.81;5051093;28;20028;-56
2022/03/23 00:59:11;;;;;;;25.23;20.13;;;;;;;-148.33;100.00;56587.81;5050335;28;20103;-58
2022/03/23 01:01:38;;;;;;;22.90;20.02;;;;;;;-148.33;100.00;56587.81;5050252;28;20037;-58
2022/03/23 01:04:03;;;;;;;23.93;20.80;;;;;;;-148.33;100.00;56587.81;5049786;28;20021;-58
2022/03/23 01:06:29;;;;;;;25.13;20.13;;;;;;;-148.33;100.00;56587.81;5050323;28;20031;-58
2022/03/23 01:08:54;;;;;;;27.80;20.87;;;;;;;-148.33;100.00;56587.81;5049756;28;20025;-57
2022/03/23 01:11:20;;;;;;;27.20;21.50;;;;;;;-148.33;100.00;56587.81;5049875;28;20025;-56
2022/03/23 01:13:45;;;;;;;28.73;21.43;;;;;;;-148.33;100.00;56587.81;5049861;28;20033;-57
2022/03/23 01:16:12;;;;;;;24.80;21.07;;;;;;;-148.33;100.00;56587.81;5050076;28;20028;-58
2022/03/23 01:18:37;;;;;;;32.70;23.10;;;;;;;-148.33;100.00;56587.81;5050050;28;20461;-58
2022/03/23 01:21:02;;;;;;;26.70;22.40;;;;;;;-148.33;100.00;56587.81;5049832;28;20025;-58
2022/03/23 01:23:28;;;;;;;36.87;22.90;;;;;;;-148.33;100.00;56587.81;5049599;28;20376;-58
2022/03/23 01:25:53;;;;;;;29.97;22.33;;;;;;;-148.33;100.00;56587.81;5049310;28;20404;-58
2022/03/23 01:28:18;;;;;;;34.70;25.80;;;;;;;-148.33;100.00;56587.81;5049574;28;20040;-58
2022/03/23 01:30:44;;;;;;;32.90;26.87;;;;;;;-148.33;100.00;56587.81;5049591;28;20013;-59
2022/03/23 01:33:09;;;;;;;32.83;24.03;;;;;;;-148.33;100.00;56587.81;5049829;28;20472;-58
2022/03/23 01:35:34;;;;;;;34.20;26.97;;;;;;;-148.33;100.00;56587.81;5049453;28;20068;-58
2022/03/23 01:37:59;;;;;;;33.83;26.87;;;;;;;-148.33;100.00;56587.81;5058918;28;20028;-58
2022/03/23 01:40:25;;;;;;;38.23;26.30;;;;;;;-148.33;100.00;56587.81;5068017;28;20039;-58
2022/03/23 01:42:50;;;;;;;30.40;24.43;;;;;;;-148.33;100.00;56587.81;5068721;28;20503;-58
2022/03/23 01:45:15;;;;;;;32.77;23.80;;;;;;;-148.33;100.00;56587.81;5068276;28;20047;-58
2022/03/23 01:47:41;;;;;;;29.70;23.17;;;;;;;-148.33;100.00;56587.81;5068572;28;20605;-58
2022/03/23 01:50:08;;;;;;;29.47;23.53;;;;;;;-148.33;100.00;56587.81;5068461;28;20625;-58
2022/03/23 01:52:34;;;;;;;30.37;22.83;;;;;;;-148.33;100.00;56587.81;5068145;28;20071;-58
2022/03/23 01:55:04;;;;;;;32.03;23.67;;;;;;;-148.33;100.00;56587.81;5068213;28;20047;-57
2022/03/23 01:57:29;;;;;;;31.27;22.47;;;;;;;-148.33;100.00;56587.81;5068038;28;20476;-58
2022/03/23 01:59:55;;;;;;;28.77;22.10;;;;;;;-148.33;100.00;56587.81;5067857;28;20101;-59
2022/03/23 02:02:21;;;;;;;25.47;20.57;;;;;;;-148.33;100.00;56587.81;5067502;28;20516;-56
2022/03/23 02:04:46;;;;;;;27.00;23.03;;;;;;;-148.33;100.00;56587.81;5067910;28;20040;-58
2022/03/23 02:07:13;;;;;;;27.50;22.57;;;;;;;-148.33;100.00;56587.81;5055110;28;20025;-58
2022/03/23 02:09:38;;;;;;;29.77;23.20;;;;;;;-148.33;100.00;56587.81;5048576;28;20081;-57
2022/03/23 02:12:08;;;;;;;30.70;22.93;;;;;;;-148.33;100.00;56587.81;5048769;28;20025;-58
2022/03/23 02:14:34;;;;;;;27.17;21.73;;;;;;;-148.33;100.00;56587.81;5061128;28;20389;-58
2022/03/23 02:16:59;;;;;;;31.57;23.27;;;;;;;-148.33;100.00;56587.81;5048862;28;20013;-58
2022/03/23 02:19:25;;;;;;;29.93;22.40;;;;;;;-148.33;100.00;56587.81;5049258;28;20031;-59
2022/03/23 02:21:55;;;;;;;29.93;22.17;;;;;;;-148.33;100.00;56587.81;5048255;28;20078;-58
2022/03/23 02:24:26;;;;;;;26.52;21.75;;;;;;;-148.33;100.00;56587.81;5048463;28;20043;-58
2022/03/23 02:26:53;;;;;;;29.65;21.83;;;;;;;-148.33;100.00;56587.81;5047970;28;20060;-58
2022/03/23 02:29:22;;;;;;;26.23;21.47;;;;;;;-148.33;100.00;56587.81;5048959;28;20033;-56
2022/03/23 02:31:48;;;;;;;28.03;22.37;;;;;;;-148.33;100.00;56587.81;5061303;28;20044;-58
2022/03/23 02:34:13;;;;;;;25.33;21.77;;;;;;;-148.33;100.00;56587.81;5067492;28;20552;-58
2022/03/23 02:36:39;;;;;;;30.60;21.53;;;;;;;-148.33;100.00;56587.81;5066744;28;20060;-58
2022/03/23 02:39:04;;;;;;;28.87;22.60;;;;;;;-148.33;100.00;56587.81;5067625;28;20021;-58
2022/03/23 02:41:30;;;;;;;29.70;21.80;;;;;;;-148.33;100.00;56587.81;5066620;28;20066;-59
2022/03/23 02:43:56;;;;;;;29.13;22.70;;;;;;;-148.33;100.00;56587.81;5067072;28;20180;-59
2022/03/23 02:46:22;;;;;;;26.37;22.93;;;;;;;-148.33;100.00;56587.81;5067390;28;20051;-58
2022/03/23 02:48:49;;;;;;;36.20;25.50;;;;;;;-148.33;100.00;56587.81;5067809;28;20104;-58
2022/03/23 02:51:14;;;;;;;31.30;22.87;;;;;;;-148.33;100.00;56587.81;5067674;28;20046;-56
2022/03/23 03:02:36;;;;;;;29.50;22.93;;;;;;;-148.33;100.00;56587.81;5048654;28;20381;-57
2022/03/23 03:05:06;;;;;;;25.93;21.40;;;;;;;-148.33;100.00;56587.81;5048274;28;20400;-56
2022/03/23 03:08:44;;;;;;;28.23;22.57;;;;;;;-148.33;100.00;56587.81;5047813;28;20311;-58
2022/03/23 03:10:19;;;;;;;31.87;21.63;;;;;;;-148.33;100.00;56587.81;5047633;28;20378;-58
2022/03/23 03:12:45;;;;;;;24.73;21.03;;;;;;;-148.33;100.00;56587.81;5047657;28;20074;-57
2022/03/23 03:15:11;;;;;;;26.77;21.77;;;;;;;-148.33;100.00;56587.81;5047560;28;20111;-58
2022/03/23 03:17:36;;;;;;;27.27;21.70;;;;;;;-148.33;100.00;56587.81;5029907;28;20041;-58
2022/03/23 03:20:04;;;;;;;27.40;20.97;;;;;;;-148.33;100.00;56587.81;5029802;28;20568;-58
2022/03/23 03:22:34;;;;;;;27.27;20.77;;;;;;;-148.33;100.00;56587.81;5047906;28;20417;-59
2022/03/23 03:24:59;;;;;;;27.57;22.00;;;;;;;-148.33;100.00;56587.81;5047154;28;20051;-58
2022/03/23 03:27:24;;;;;;;27.10;22.07;;;;;;;-148.33;100.00;56587.81;5047743;28;20025;-58
2022/03/23 03:29:49;;;;;;;25.37;20.87;;;;;;;-148.33;100.00;56587.81;5047992;28;20036;-58
2022/03/23 03:32:15;;;;;;;28.73;20.87;;;;;;;-148.33;100.00;56587.81;5047301;28;20068;-58
2022/03/23 03:34:40;;;;;;;27.63;21.20;;;;;;;-148.33;100.00;56587.81;5047694;28;20041;-58
2022/03/23 03:37:05;;;;;;;27.50;21.97;;;;;;;-148.33;100.00;56587.81;5047557;28;20032;-59
2022/03/23 03:39:30;;;;;;;29.10;21.80;;;;;;;-148.33;100.00;56587.81;5047231;28;20048;-57
2022/03/23 03:41:56;;;;;;;25.90;20.90;;;;;;;-148.33;100.00;56587.81;5047254;28;20468;-58
2022/03/23 03:44:21;;;;;;;29.13;22.97;;;;;;;-148.33;100.00;56587.81;5047928;28;20031;-56
2022/03/23 03:46:46;;;;;;;28.53;22.60;;;;;;;-148.33;100.00;56587.81;5048078;28;20055;-58
2022/03/23 03:49:15;;;;;;;28.90;21.53;;;;;;;-148.33;100.00;56587.81;5047660;28;20036;-57
2022/03/23 03:51:40;;;;;;;26.77;21.67;;;;;;;-148.33;100.00;56587.81;5047294;28;20028;-59
2022/03/23 03:54:05;;;;;;;33.23;23.30;;;;;;;-148.33;100.00;56587.81;5050389;28;20039;-58
2022/03/23 03:56:30;;;;;;;28.77;22.37;;;;;;;-148.33;100.00;56587.81;5051816;28;20029;-57
2022/03/23 03:58:56;;;;;;;28.47;23.00;;;;;;;-148.33;100.00;56587.81;5051507;28;20095;-58
2022/03/23 04:01:21;;;;;;;28.87;22.80;;;;;;;-148.33;100.00;56587.81;5051123;28;20025;-58
2022/03/23 04:03:46;;;;;;;28.93;23.13;;;;;;;-148.33;100.00;56587.81;5051112;28;20021;-58
2022/03/23 04:06:12;;;;;;;28.37;22.53;;;;;;;-148.33;100.00;56587.81;5070662;28;20080;-58
2022/03/23 04:08:38;;;;;;;30.30;23.13;;;;;;;-148.33;100.00;56587.81;5070568;28;20047;-59
2022/03/23 04:11:03;;;;;;;29.30;21.57;;;;;;;-148.33;100.00;56587.81;5069892;28;20508;-57
2022/03/23 04:13:29;;;;;;;30.00;24.90;;;;;;;-148.33;100.00;56587.81;5070498;28;20471;-59
2022/03/23 04:15:54;;;;;;;42.40;25.90;;;;;;;-148.33;100.00;56587.81;5070482;28;20423;-58
2022/03/23 04:18:19;;;;;;;34.13;24.23;;;;;;;-148.33;100.00;56587.81;5070563;28;20028;-59
2022/03/23 04:20:44;;;;;;;30.77;24.73;;;;;;;-148.33;100.00;56587.81;5070448;28;20029;-59
2022/03/23 04:23:10;;;;;;;30.70;23.57;;;;;;;-148.33;100.00;56587.81;5069720;28;20036;-59
2022/03/23 04:25:35;;;;;;;32.03;25.07;;;;;;;-148.33;100.00;56587.81;5070190;28;20036;-57
2022/03/23 04:28:00;;;;;;;31.83;23.73;;;;;;;-148.33;100.00;56587.81;5070069;28;20349;-58
2022/03/23 04:30:31;;;;;;;30.93;23.27;;;;;;;-148.33;100.00;56587.81;5070255;28;20124;-59
2022/03/23 04:32:56;;;;;;;32.20;25.33;;;;;;;-148.33;100.00;56587.81;5070451;28;20035;-59
2022/03/23 04:35:22;;;;;;;31.23;24.53;;;;;;;-148.33;100.00;56587.81;5070019;28;20370;-59
2022/03/23 04:37:49;;;;;;;33.27;24.53;;;;;;;-148.33;100.00;56587.81;5070242;28;20516;-58
2022/03/23 04:40:15;;;;;;;32.93;25.10;;;;;;;-148.33;100.00;56587.81;5069855;28;20028;-57
2022/03/23 04:42:42;;;;;;;34.13;24.77;;;;;;;-148.33;100.00;56587.81;5069743;28;20096;-58
2022/03/23 04:45:09;;;;;;;30.07;23.60;;;;;;;-148.33;100.00;56587.81;5069359;28;20401;-58
2022/03/23 04:47:34;;;;;;;35.20;25.63;;;;;;;-148.33;100.00;56587.81;5069489;28;20040;-57
2022/03/23 04:50:00;;;;;;;31.00;24.47;;;;;;;-148.33;100.00;56587.81;5069564;28;20469;-58
2022/03/23 04:52:26;;;;;;;33.70;26.03;;;;;;;-148.33;100.00;56587.81;5068140;28;20039;-58
2022/03/23 04:54:56;;;;;;;33.43;25.23;;;;;;;-148.33;100.00;56587.81;5069684;28;20032;-59
2022/03/23 04:57:21;;;;;;;34.50;24.53;;;;;;;-148.33;100.00;56587.81;5069378;28;20050;-58
2022/03/23 04:59:47;;;;;;;35.17;25.77;;;;;;;-148.33;100.00;56587.81;5069224;28;20064;-58
2022/03/23 05:02:12;;;;;;;32.17;24.43;;;;;;;-148.33;100.00;56587.81;5069423;28;20042;-58
2022/03/23 05:04:37;;;;;;;33.57;24.63;;;;;;;-148.33;100.00;56587.81;5069088;28;20400;-56
2022/03/23 05:07:03;;;;;;;31.23;25.23;;;;;;;-148.33;100.00;56587.81;5069942;28;20025;-57
2022/03/23 05:09:28;;;;;;;32.23;24.33;;;;;;;-148.33;100.00;56587.81;5066062;28;20032;-57
2022/03/23 05:11:53;;;;;;;34.20;25.50;;;;;;;-148.33;100.00;56587.81;5068819;28;20043;-60
2022/03/23 05:14:18;;;;;;;33.77;25.43;;;;;;;-148.33;100.00;56587.81;5069345;28;20028;-58
2022/03/23 05:16:44;;;;;;;36.23;25.30;;;;;;;-148.33;100.00;56587.81;5069308;28;20024;-58
2022/03/23 05:19:09;;;;;;;36.77;25.73;;;;;;;-148.33;100.00;56587.81;5069154;28;20032;-57
2022/03/23 05:21:34;;;;;;;32.57;24.20;;;;;;;-148.33;100.00;56587.81;5067863;28;20364;-57
2022/03/23 05:23:59;;;;;;;34.00;25.53;;;;;;;-148.33;100.00;56587.81;5066729;28;20101;-58
2022/03/23 05:26:25;;;;;;;32.97;25.07;;;;;;;-148.33;100.00;56587.81;5054232;28;20596;-58
2022/03/23 05:28:50;;;;;;;31.93;24.97;;;;;;;-148.33;100.00;56587.81;5048473;28;20031;-57
2022/03/23 05:31:15;;;;;;;36.10;24.83;;;;;;;-148.33;100.00;56587.81;5047804;28;20060;-59
2022/03/23 05:33:40;;;;;;;29.60;24.43;;;;;;;-148.33;100.00;56587.81;5048593;28;20037;-58
2022/03/23 05:36:06;;;;;;;33.57;24.67;;;;;;;-148.33;100.00;56587.81;5049995;28;20069;-57
2022/03/23 05:38:32;;;;;;;33.20;25.00;;;;;;;-148.33;100.00;56587.81;5065217;28;20358;-59
2022/03/23 05:40:57;;;;;;;35.80;26.53;;;;;;;-148.33;100.00;56587.81;5062927;28;20123;-57
2022/03/23 05:43:22;;;;;;;35.77;25.83;;;;;;;-148.33;100.00;56587.81;5068444;28;20024;-59
2022/03/23 05:45:47;;;;;;;31.67;25.67;;;;;;;-148.33;100.00;56587.81;5064580;28;20431;-58
2022/03/23 05:48:13;;;;;;;34.73;25.97;;;;;;;-148.33;100.00;56587.81;5068571;28;20024;-58
2022/03/23 05:50:38;;;;;;;35.00;26.33;;;;;;;-148.33;100.00;56587.81;5068087;28;20082;-56
2022/03/23 05:53:03;;;;;;;33.20;25.00;;;;;;;-148.33;100.00;56587.81;5067962;28;20040;-57
2022/03/23 05:55:29;;;;;;;36.77;25.23;;;;;;;-148.33;100.00;56587.81;5068558;28;20055;-58
2022/03/23 05:57:55;;;;;;;36.53;25.97;;;;;;;-148.33;100.00;56587.81;5049065;28;20075;-58
2022/03/23 06:00:20;;;;;;;36.93;27.00;;;;;;;-148.33;100.00;56587.81;5050734;28;20072;-58
2022/03/23 06:02:45;;;;;;;32.90;25.00;;;;;;;-148.33;100.00;56587.81;5067677;28;20115;-57
2022/03/23 06:05:11;;;;;;;36.30;24.90;;;;;;;-148.33;100.00;56587.81;5068354;28;20028;-58
2022/03/23 06:07:36;;;;;;;32.73;24.73;;;;;;;-148.33;100.00;56587.81;5060576;28;20033;-58
2022/03/23 06:10:07;;;;;;;33.93;24.23;;;;;;;-148.33;100.00;56587.81;5056392;28;20036;-60
2022/03/23 06:12:32;;;;;;;34.90;25.48;;;;;;;-148.33;100.00;56587.81;5051027;28;20040;-55
2022/03/23 06:14:57;;;;;;;34.00;24.80;;;;;;;-148.33;100.00;56587.81;5059054;28;20031;-59
2022/03/23 06:17:23;;;;;;;33.07;26.20;;;;;;;-148.33;100.00;56587.81;5054992;28;20468;-55
2022/03/23 06:19:48;;;;;;;36.37;27.23;;;;;;;-148.33;100.00;56587.81;5052875;28;20031;-58
2022/03/23 06:22:13;;;;;;;38.33;26.87;;;;;;;-148.33;100.00;56587.81;5054382;28;20081;-58
2022/03/23 06:24:38;;;;;;;33.00;25.17;;;;;;;-148.33;100.00;56587.81;5051300;28;20473;-59
2022/03/23 06:27:04;;;;;;;37.80;27.27;;;;;;;-148.33;100.00;56587.81;5067816;28;20280;-59
2022/03/23 06:29:29;;;;;;;33.70;25.53;;;;;;;-148.33;100.00;56587.81;5068093;28;20032;-58
2022/03/23 06:31:55;;;;;;;36.27;27.23;;;;;;;-148.33;100.00;56587.81;5055170;28;20021;-58
2022/03/23 06:34:20;;;;;;;38.03;26.93;;;;;;;-148.33;100.00;56587.81;5051102;28;20025;-58
2022/03/23 06:36:46;;;;;;;33.10;26.30;;;;;;;-148.33;100.00;56587.81;5066098;28;20063;-58
2022/03/23 06:39:11;;;;;;;36.43;28.07;;;;;;;-148.33;100.00;56587.81;5051473;28;20058;-58
2022/03/23 06:41:36;;;;;;;32.17;25.10;;;;;;;-148.33;100.00;56587.81;5049683;28;20092;-58
2022/03/23 06:44:02;;;;;;;34.27;26.47;;;;;;;-148.33;100.00;56587.81;5049693;28;20032;-59
2022/03/23 06:46:27;;;;;;;33.00;25.33;;;;;;;-148.33;100.00;56587.81;5055084;28;20043;-58
2022/03/23 06:48:52;;;;;;;35.03;27.60;;;;;;;-148.33;100.00;56587.81;5063666;28;20423;-57
2022/03/23 06:51:18;;;;;;;32.93;26.73;;;;;;;-148.33;100.00;56587.81;5066662;28;20416;-58
2022/03/23 06:53:43;;;;;;;33.30;26.80;;;;;;;-148.33;100.00;56587.81;5067065;28;20039;-57
2022/03/23 06:56:09;;;;;;;35.70;27.50;;;;;;;-148.33;100.00;56587.81;5056441;28;20036;-57
2022/03/23 06:58:36;;;;;;;39.63;27.63;;;;;;;-148.33;100.00;56587.81;5048130;28;20499;-58
2022/03/23 07:01:01;;;;;;;35.28;28.25;;;;;;;-148.33;100.00;56587.81;5046749;28;20180;-58
2022/03/23 07:03:27;;;;;;;35.67;28.77;;;;;;;-148.33;100.00;56587.81;5045891;28;20393;-58
2022/03/23 07:05:52;;;;;;;36.67;28.55;;;;;;;-148.33;100.00;56587.81;5047480;28;20056;-58
2022/03/23 07:11:03;;;;;;;33.53;28.10;;;;;;;-148.33;100.00;56587.81;5060093;28;20039;-57
2022/03/23 07:13:28;;;;;;;35.40;28.33;;;;;;;-148.33;100.00;56587.81;5047206;28;20377;-57
2022/03/23 07:15:54;;;;;;;31.42;26.75;;;;;;;-148.33;100.00;56587.81;5049452;28;20021;-58
2022/03/23 07:18:19;;;;;;;35.22;25.77;;;;;;;-148.33;100.00;56587.81;5059248;28;20031;-58
2022/03/23 07:20:44;;;;;;;41.50;27.70;;;;;;;-148.33;100.00;56587.81;5066493;28;20032;-56
2022/03/23 07:23:10;;;;;;;35.35;26.42;;;;;;;-148.33;100.00;56587.81;5055618;28;20024;-58
2022/03/23 07:25:35;;;;;;;32.17;26.25;;;;;;;-148.33;100.00;56587.81;5060909;28;20040;-57
2022/03/23 07:28:02;;;;;;;31.42;26.25;;;;;;;-148.33;100.00;56587.81;5051768;28;20103;-59
2022/03/23 07:30:29;;;;;;;29.25;26.08;;;;;;;-148.33;100.00;56587.81;5061432;28;20539;-57
2022/03/23 07:32:55;;;;;;;34.78;27.42;;;;;;;-148.33;100.00;56587.81;5047519;28;20090;-59
2022/03/23 07:35:21;;;;;;;32.40;26.45;;;;;;;-148.33;100.00;56587.81;5046753;28;20028;-58
2022/03/23 07:37:46;;;;;;;34.65;27.27;;;;;;;-148.33;100.00;56587.81;5053444;28;20044;-58
2022/03/23 07:40:12;;;;;;;33.97;27.98;;;;;;;-148.33;100.00;56587.81;5057434;28;20024;-59
2022/03/23 07:42:37;;;;;;;33.50;27.73;;;;;;;-148.33;100.00;56587.81;5049910;28;20028;-57
2022/03/23 07:45:03;;;;;;;31.80;27.67;;;;;;;-148.33;100.00;56587.81;5046572;28;20111;-58
2022/03/23 07:47:28;;;;;;;30.70;26.98;;;;;;;-148.33;100.00;56587.81;5048486;28;20094;-58
2022/03/23 07:49:53;;;;;;;31.27;26.63;;;;;;;-148.33;100.00;56587.81;5059640;28;20104;-59
2022/03/23 07:52:19;;;;;;;33.05;27.15;;;;;;;-148.33;100.00;56587.81;5044520;28;20536;-59
2022/03/23 07:54:45;;;;;;;29.90;26.50;;;;;;;-148.33;100.00;56587.81;5047651;28;20029;-58
2022/03/23 07:57:10;;;;;;;32.15;27.25;;;;;;;-148.33;100.00;56587.81;5051435;28;20116;-59
2022/03/23 07:59:35;;;;;;;29.85;26.20;;;;;;;-148.33;100.00;56587.81;5060604;28;20105;-59
2022/03/23 08:02:01;;;;;;;28.35;25.45;;;;;;;-148.33;100.00;56587.81;5060523;28;20115;-59
2022/03/23 08:04:26;;;;;;;29.08;26.00;;;;;;;-148.33;100.00;56587.81;5062063;28;20036;-58
2022/03/23 08:06:51;;;;;;;30.67;27.08;;;;;;;-148.33;100.00;56587.81;5065839;28;20024;-58
2022/03/23 08:09:17;;;;;;;32.67;26.10;;;;;;;-148.33;100.00;56587.81;5052356;28;20037;-59
2022/03/23 08:11:42;;;;;;;31.27;26.85;;;;;;;-148.33;100.00;56587.81;5065205;28;20032;-59
2022/03/23 08:14:07;;;;;;;34.40;26.73;;;;;;;-148.33;100.00;56587.81;5065211;28;20037;-59
2022/03/23 08:16:32;;;;;;;28.65;25.65;;;;;;;-148.33;100.00;56587.81;5066077;28;20025;-59
2022/03/23 08:18:58;;;;;;;29.38;26.27;;;;;;;-148.33;100.00;56587.81;5065869;28;20110;-59
2022/03/23 08:21:23;;;;;;;29.05;25.92;;;;;;;-148.33;100.00;56587.81;5065950;28;20461;-58
2022/03/23 08:23:49;;;;;;;29.58;26.33;;;;;;;-148.33;100.00;56587.81;5049245;28;20056;-59
2022/03/23 08:26:15;;;;;;;28.83;25.92;;;;;;;-148.33;100.00;56587.81;5046939;28;20499;-58
2022/03/23 08:28:41;;;;;;;30.23;26.73;;;;;;;-148.33;100.00;56587.81;5047004;28;20481;-58
2022/03/23 08:31:07;;;;;;;29.38;26.02;;;;;;;-148.33;100.00;56587.81;5047071;28;20436;-59
2022/03/23 08:33:34;;;;;;;29.35;26.05;;;;;;;-148.33;100.00;56587.81;5047271;28;20037;-59
2022/03/23 08:36:00;;;;;;;28.85;25.08;;;;;;;-148.33;100.00;56587.81;5046622;28;20135;-57
2022/03/23 08:38:26;;;;;;;27.80;24.45;;;;;;;-148.33;100.00;56587.81;5046718;28;20037;-57
2022/03/23 08:40:51;;;;;;;31.40;25.65;;;;;;;-148.33;100.00;56587.81;5049600;28;20063;-57
2022/03/23 08:43:16;;;;;;;28.55;25.65;;;;;;;-148.33;100.00;56587.81;5050252;28;20460;-58
2022/03/23 08:45:42;;;;;;;29.25;26.08;;;;;;;-148.33;100.00;56587.81;5049114;28;20410;-60
2022/03/23 08:48:09;;;;;;;27.10;24.25;;;;;;;-148.33;100.00;56587.81;5048716;28;20071;-57
2022/03/23 08:50:35;;;;;;;29.30;26.25;;;;;;;-148.33;100.00;56587.81;5049284;28;20028;-58
2022/03/23 08:53:02;;;;;;;29.73;26.73;;;;;;;-148.33;100.00;56587.81;5049157;28;20025;-58
2022/03/23 08:55:28;;;;;;;28.58;25.45;;;;;;;-148.33;100.00;56587.81;5048965;28;20032;-58
2022/03/23 08:57:54;;;;;;;29.45;26.48;;;;;;;-148.33;100.00;56587.81;5048255;28;20025;-58
2022/03/23 09:00:19;;;;;;;30.85;25.92;;;;;;;-148.33;100.00;56587.81;5050269;28;20460;-58
2022/03/23 09:02:45;;;;;;;34.80;27.27;;;;;;;-148.33;100.00;56587.81;5050209;28;20052;-59
2022/03/23 09:05:14;;;;;;;31.35;27.27;;;;;;;-148.33;100.00;56587.81;5050491;28;20040;-58
2022/03/23 09:07:40;;;;;;;31.92;26.70;;;;;;;-148.33;100.00;56587.81;5050524;28;20021;-58
2022/03/23 09:10:06;;;;;;;29.98;26.67;;;;;;;-148.33;100.00;56587.81;5050137;28;20025;-58
2022/03/23 09:12:32;;;;;;;29.38;26.60;;;;;;;-148.33;100.00;56587.81;5069169;28;20023;-58
2022/03/23 09:14:57;;;;;;;28.75;26.02;;;;;;;-148.33;100.00;56587.81;5070222;28;20033;-58
2022/03/23 09:17:22;;;;;;;29.35;25.85;;;;;;;-148.33;100.00;56587.81;5069580;28;20028;-58
2022/03/23 09:19:48;;;;;;;30.58;25.83;;;;;;;-148.33;100.00;56587.81;5069015;28;20021;-58
2022/03/23 09:22:14;;;;;;;30.17;26.83;;;;;;;-148.33;100.00;56587.81;5068721;28;20086;-58
2022/03/23 09:24:39;;;;;;;29.58;26.67;;;;;;;-148.33;100.00;56587.81;5068926;28;20476;-58
2022/03/23 09:27:04;;;;;;;28.65;25.38;;;;;;;-148.33;100.00;56587.81;5069210;28;20392;-57
2022/03/23 09:29:30;;;;;;;30.30;26.20;;;;;;;-148.33;100.00;56587.81;5051185;28;20051;-58
2022/03/23 09:31:55;;;;;;;27.92;25.02;;;;;;;-148.33;100.00;56587.81;5069022;28;20499;-59
2022/03/23 09:34:21;;;;;;;28.90;25.95;;;;;;;-148.33;100.00;56587.81;5068873;28;20798;-58
2022/03/23 09:39:30;;;;;;;29.40;26.45;;;;;;;-148.33;100.00;56587.81;5068858;28;20098;-58
2022/03/23 09:41:57;;;;;;;26.27;23.45;;;;;;;-148.33;100.00;56587.81;5068490;28;20032;-58
2022/03/23 09:44:28;;;;;;;26.50;23.65;;;;;;;-148.33;100.00;56587.81;5068944;28;20020;-57
2022/03/23 09:46:57;;;;;;;28.23;25.30;;;;;;;-148.33;100.00;56587.81;5068635;28;20082;-58
2022/03/23 09:49:25;;;;;;;28.33;25.02;;;;;;;-148.33;100.00;56587.81;5069001;28;20028;-58
2022/03/23 09:51:53;;;;;;;28.40;25.27;;;;;;;-148.33;100.00;56587.81;5067907;28;20016;-58
2022/03/23 09:54:19;;;;;;;27.98;25.00;;;;;;;-148.33;100.00;56587.81;5068459;28;20538;-58
2022/03/23 09:56:45;;;;;;;26.65;24.10;;;;;;;-148.33;100.00;56587.81;5068598;28;20518;-59
2022/03/23 09:59:10;;;;;;;27.38;24.55;;;;;;;-148.33;100.00;56587.81;5067788;28;20048;-58
2022/03/23 10:01:41;;;;;;;28.55;25.65;;;;;;;-148.33;100.00;56587.81;5068754;28;20051;-58
2022/03/23 10:04:12;;;;;;;31.48;26.83;;;;;;;-148.33;100.00;56587.81;5068614;28;20028;-58
2022/03/23 10:06:56;;;;;;;29.45;26.45;;;;;;;-148.33;100.00;56587.81;5067998;28;20078;-58
2022/03/23 10:09:45;;;;;;;27.85;24.95;;;;;;;-148.33;100.00;56587.81;5067502;28;20032;-58
2022/03/23 10:12:55;;;;;;;28.63;25.58;;;;;;;-148.33;100.00;56587.81;5067727;28;20067;-58
2022/03/23 10:15:58;;;;;;;27.08;24.27;;;;;;;-148.33;100.00;56587.81;5067805;28;20510;-59
2022/03/23 10:18:49;;;;;;;28.80;25.65;;;;;;;-148.33;100.00;56587.81;5067411;28;20035;-58
2022/03/23 10:21:14;;;;;;;28.53;25.40;;;;;;;-148.33;100.00;56587.81;5067354;28;20081;-58
2022/03/23 10:23:50;;;;;;;30.17;24.15;;;;;;;-148.33;100.00;56587.81;5067767;28;20103;-58
2022/03/23 10:26:15;;;;;;;27.80;24.85;;;;;;;-148.33;100.00;56587.81;5067957;28;20028;-58
2022/03/23 10:28:41;;;;;;;31.50;25.65;;;;;;;-148.33;100.00;56587.81;5067177;28;20069;-57
2022/03/23 10:31:20;;;;;;;29.20;26.20;;;;;;;-148.33;100.00;56587.81;5067618;28;20035;-58
2022/03/23 10:34:09;;;;;;;28.02;25.25;;;;;;;-148.33;100.00;56587.81;5067997;28;20067;-58
2022/03/23 10:36:51;;;;;;;25.67;23.08;;;;;;;-148.33;100.00;56587.81;5068078;28;20448;-58
2022/03/23 10:39:18;;;;;;;27.10;24.48;;;;;;;-148.33;100.00;56587.81;5055058;28;20059;-58
2022/03/23 10:41:55;;;;;;;26.20;23.40;;;;;;;-148.33;100.00;56587.81;5047676;28;20481;-57
2022/03/23 10:44:20;;;;;;;30.13;24.50;;;;;;;-148.33;100.00;56587.81;5047800;28;20025;-58
2022/03/23 10:46:48;;;;;;;26.73;23.88;;;;;;;-148.33;100.00;56587.81;5052607;28;20093;-59
2022/03/23 10:49:15;;;;;;;25.48;22.85;;;;;;;-148.33;100.00;56587.81;5054046;28;20029;-59
2022/03/23 10:51:42;;;;;;;26.45;23.73;;;;;;;-148.33;100.00;56587.81;5058598;28;20035;-58
2022/03/23 10:54:18;;;;;;;27.85;23.75;;;;;;;-148.33;100.00;56587.81;5051655;28;20116;-59
2022/03/23 10:56:44;;;;;;;27.27;24.58;;;;;;;-148.33;100.00;56587.81;5055674;28;20383;-58
2022/03/23 10:59:22;;;;;;;27.60;23.50;;;;;;;-148.33;100.00;56587.81;5052320;28;20062;-59
2022/03/23 11:02:06;;;;;;;25.40;22.80;;;;;;;-148.33;100.00;56587.81;5047675;28;20029;-58
2022/03/23 11:04:50;;;;;;;27.63;23.45;;;;;;;-148.33;100.00;56587.81;5063279;28;20157;-59
2022/03/23 11:07:35;;;;;;;27.63;24.73;;;;;;;-148.33;100.00;56587.81;5063609;28;20457;-58